sensor_id;sensor_type;location;lat;lon;timestamp;P1;durP1;ratioP1;P2;durP2;ratioP2
30466;SDS011;17258;52.560;13.046;2023-08-07T00:01:47;1.33;;;1.23;;
30466;SDS011;17258;52.560;13.046;2023-08-07T00:11:47;1.67;;;1.30;;
30466;SDS011;17258;52.560;13.046;2023-08-07T00:21:48;3.20;;;1.60;;
30466;SDS011;17258;52.560;13.046;2023-08-07T00:31:49;3.40;;;1.57;;
30466;SDS011;17258;52.560;13.046;2023-08-07T00:41:49;1.70;;;1.60;;
30466;SDS011;17258;52.560;13.046;2023-08-07T00:51:50;2.03;;;1.50;;
30466;SDS011;17258;52.560;13.046;2023-08-07T01:01:52;1.85;;;1.75;;
30466;SDS011;17258;52.560;13.046;2023-08-07T01:12:06;2.50;;;1.48;;
30466;SDS011;17258;52.560;13.046;2023-08-07T01:22:17;2.50;;;1.83;;
30466;SDS011;17258;52.560;13.046;2023-08-07T01:32:21;1.60;;;1.50;;
30466;SDS011;17258;52.560;13.046;2023-08-07T01:42:45;2.50;;;1.90;;
30466;SDS011;17258;52.560;13.046;2023-08-07T01:52:47;2.95;;;1.80;;
30466;SDS011;17258;52.560;13.046;2023-08-07T02:02:48;1.73;;;1.63;;
30466;SDS011;17258;52.560;13.046;2023-08-07T02:12:50;2.17;;;1.90;;
30466;SDS011;17258;52.560;13.046;2023-08-07T02:22:50;2.25;;;1.77;;
30466;SDS011;17258;52.560;13.046;2023-08-07T02:32:51;3.53;;;2.30;;
30466;SDS011;17258;52.560;13.046;2023-08-07T02:42:52;4.37;;;2.53;;
30466;SDS011;17258;52.560;13.046;2023-08-07T02:52:52;2.23;;;1.90;;
30466;SDS011;17258;52.560;13.046;2023-08-07T03:02:53;2.75;;;2.30;;
30466;SDS011;17258;52.560;13.046;2023-08-07T03:12:54;3.70;;;2.67;;
30466;SDS011;17258;52.560;13.046;2023-08-07T03:22:54;2.37;;;2.27;;
30466;SDS011;17258;52.560;13.046;2023-08-07T03:32:55;2.83;;;2.60;;
30466;SDS011;17258;52.560;13.046;2023-08-07T03:42:56;2.63;;;2.43;;
30466;SDS011;17258;52.560;13.046;2023-08-07T03:52:56;2.50;;;2.20;;
30466;SDS011;17258;52.560;13.046;2023-08-07T04:02:57;3.53;;;2.63;;
30466;SDS011;17258;52.560;13.046;2023-08-07T04:12:57;4.60;;;2.30;;
30466;SDS011;17258;52.560;13.046;2023-08-07T04:22:58;2.40;;;2.20;;
30466;SDS011;17258;52.560;13.046;2023-08-07T04:32:59;3.27;;;2.17;;
30466;SDS011;17258;52.560;13.046;2023-08-07T04:42:59;2.27;;;2.07;;
30466;SDS011;17258;52.560;13.046;2023-08-07T04:53:00;3.20;;;2.17;;
30466;SDS011;17258;52.560;13.046;2023-08-07T05:03:01;1.87;;;1.77;;
30466;SDS011;17258;52.560;13.046;2023-08-07T05:13:02;5.30;;;1.93;;
30466;SDS011;17258;52.560;13.046;2023-08-07T05:23:02;2.03;;;1.80;;
30466;SDS011;17258;52.560;13.046;2023-08-07T05:33:03;6.32;;;5.22;;
30466;SDS011;17258;52.560;13.046;2023-08-07T05:43:04;13.95;;;13.00;;
30466;SDS011;17258;52.560;13.046;2023-08-07T05:53:05;13.30;;;12.40;;
30466;SDS011;17258;52.560;13.046;2023-08-07T06:03:05;13.97;;;13.17;;
30466;SDS011;17258;52.560;13.046;2023-08-07T06:13:06;13.90;;;13.20;;
30466;SDS011;17258;52.560;13.046;2023-08-07T06:23:08;15.23;;;14.23;;
30466;SDS011;17258;52.560;13.046;2023-08-07T06:33:08;14.87;;;14.07;;
30466;SDS011;17258;52.560;13.046;2023-08-07T06:43:09;14.17;;;13.37;;
30466;SDS011;17258;52.560;13.046;2023-08-07T06:53:10;16.10;;;15.10;;
30466;SDS011;17258;52.560;13.046;2023-08-07T07:03:10;16.00;;;14.93;;
30466;SDS011;17258;52.560;13.046;2023-08-07T07:13:11;16.27;;;15.20;;
30466;SDS011;17258;52.560;13.046;2023-08-07T07:23:12;16.67;;;15.70;;
30466;SDS011;17258;52.560;13.046;2023-08-07T07:33:13;17.00;;;15.90;;
30466;SDS011;17258;52.560;13.046;2023-08-07T07:43:13;16.83;;;15.63;;
30466;SDS011;17258;52.560;13.046;2023-08-07T07:53:14;8.25;;;7.75;;
30466;SDS011;17258;52.560;13.046;2023-08-07T08:03:15;12.20;;;11.52;;
30466;SDS011;17258;52.560;13.046;2023-08-07T08:13:16;16.83;;;15.82;;
30466;SDS011;17258;52.560;13.046;2023-08-07T08:23:17;16.90;;;15.90;;
30466;SDS011;17258;52.560;13.046;2023-08-07T08:33:17;17.10;;;16.00;;
30466;SDS011;17258;52.560;13.046;2023-08-07T08:43:18;17.17;;;15.87;;
30466;SDS011;17258;52.560;13.046;2023-08-07T08:53:20;2.60;;;2.40;;
30466;SDS011;17258;52.560;13.046;2023-08-07T09:03:23;18.35;;;17.05;;
30466;SDS011;17258;52.560;13.046;2023-08-07T09:13:24;18.23;;;17.15;;
30466;SDS011;17258;52.560;13.046;2023-08-07T09:23:27;18.60;;;17.15;;
30466;SDS011;17258;52.560;13.046;2023-08-07T09:33:29;18.10;;;16.90;;
30466;SDS011;17258;52.560;13.046;2023-08-07T09:43:33;17.25;;;16.20;;
30466;SDS011;17258;52.560;13.046;2023-08-07T09:53:35;17.25;;;16.02;;
30466;SDS011;17258;52.560;13.046;2023-08-07T10:03:36;17.33;;;16.33;;
30466;SDS011;17258;52.560;13.046;2023-08-07T10:13:37;16.83;;;15.75;;
30466;SDS011;17258;52.560;13.046;2023-08-07T10:23:38;17.73;;;16.52;;
30466;SDS011;17258;52.560;13.046;2023-08-07T10:33:40;13.30;;;12.55;;
30466;SDS011;17258;52.560;13.046;2023-08-07T10:43:42;17.05;;;16.05;;
30466;SDS011;17258;52.560;13.046;2023-08-07T10:53:46;17.05;;;15.95;;
30466;SDS011;17258;52.560;13.046;2023-08-07T11:03:52;10.02;;;9.43;;
30466;SDS011;17258;52.560;13.046;2023-08-07T11:13:55;10.68;;;10.10;;
30466;SDS011;17258;52.560;13.046;2023-08-07T11:23:55;11.40;;;10.70;;
30466;SDS011;17258;52.560;13.046;2023-08-07T11:33:56;9.87;;;9.27;;
30466;SDS011;17258;52.560;13.046;2023-08-07T11:43:58;8.85;;;8.23;;
30466;SDS011;17258;52.560;13.046;2023-08-07T11:53:59;8.60;;;8.20;;
30466;SDS011;17258;52.560;13.046;2023-08-07T12:14:13;11.88;;;11.07;;
30466;SDS011;17258;52.560;13.046;2023-08-07T12:24:17;9.55;;;8.80;;
30466;SDS011;17258;52.560;13.046;2023-08-07T12:34:18;11.07;;;10.38;;
30466;SDS011;17258;52.560;13.046;2023-08-07T12:44:18;14.30;;;13.40;;
30466;SDS011;17258;52.560;13.046;2023-08-07T12:54:19;13.67;;;12.87;;
30466;SDS011;17258;52.560;13.046;2023-08-07T13:04:19;16.70;;;14.23;;
30466;SDS011;17258;52.560;13.046;2023-08-07T13:14:20;16.13;;;14.88;;
30466;SDS011;17258;52.560;13.046;2023-08-07T13:24:21;16.60;;;15.40;;
30466;SDS011;17258;52.560;13.046;2023-08-07T13:34:22;17.10;;;16.00;;
30466;SDS011;17258;52.560;13.046;2023-08-07T13:44:22;16.23;;;15.23;;
30466;SDS011;17258;52.560;13.046;2023-08-07T13:54:23;16.98;;;15.88;;
30466;SDS011;17258;52.560;13.046;2023-08-07T14:04:24;16.67;;;15.67;;
30466;SDS011;17258;52.560;13.046;2023-08-07T14:14:42;17.38;;;15.68;;
30466;SDS011;17258;52.560;13.046;2023-08-07T14:24:42;17.08;;;15.98;;
30466;SDS011;17258;52.560;13.046;2023-08-07T14:34:46;15.00;;;13.63;;
30466;SDS011;17258;52.560;13.046;2023-08-07T14:44:48;17.42;;;16.30;;
30466;SDS011;17258;52.560;13.046;2023-08-07T14:54:49;17.50;;;16.30;;
30466;SDS011;17258;52.560;13.046;2023-08-07T15:04:50;17.30;;;16.17;;
30466;SDS011;17258;52.560;13.046;2023-08-07T15:14:51;17.45;;;16.10;;
30466;SDS011;17258;52.560;13.046;2023-08-07T15:24:52;18.00;;;16.27;;
30466;SDS011;17258;52.560;13.046;2023-08-07T15:34:52;17.10;;;15.70;;
30466;SDS011;17258;52.560;13.046;2023-08-07T15:44:53;16.80;;;15.70;;
30466;SDS011;17258;52.560;13.046;2023-08-07T15:54:54;15.77;;;14.57;;
30466;SDS011;17258;52.560;13.046;2023-08-07T16:04:54;9.23;;;7.00;;
30466;SDS011;17258;52.560;13.046;2023-08-07T16:14:55;13.23;;;12.43;;
30466;SDS011;17258;52.560;13.046;2023-08-07T16:24:58;15.38;;;14.38;;
30466;SDS011;17258;52.560;13.046;2023-08-07T16:35:00;15.90;;;15.00;;
30466;SDS011;17258;52.560;13.046;2023-08-07T16:45:03;17.33;;;16.15;;
30466;SDS011;17258;52.560;13.046;2023-08-07T16:55:04;14.20;;;13.18;;
30466;SDS011;17258;52.560;13.046;2023-08-07T17:05:06;16.60;;;15.60;;
30466;SDS011;17258;52.560;13.046;2023-08-07T17:15:07;4.97;;;1.65;;
30466;SDS011;17258;52.560;13.046;2023-08-07T17:25:09;9.88;;;9.05;;
30466;SDS011;17258;52.560;13.046;2023-08-07T17:35:09;8.33;;;2.70;;
30466;SDS011;17258;52.560;13.046;2023-08-07T17:45:10;4.17;;;2.70;;
30466;SDS011;17258;52.560;13.046;2023-08-07T17:55:11;2.77;;;2.33;;
30466;SDS011;17258;52.560;13.046;2023-08-07T18:05:12;2.75;;;1.70;;
30466;SDS011;17258;52.560;13.046;2023-08-07T18:15:13;3.60;;;2.00;;
30466;SDS011;17258;52.560;13.046;2023-08-07T18:25:13;6.30;;;1.93;;
30466;SDS011;17258;52.560;13.046;2023-08-07T18:35:14;4.67;;;1.70;;
30466;SDS011;17258;52.560;13.046;2023-08-07T18:45:16;2.83;;;1.60;;
30466;SDS011;17258;52.560;13.046;2023-08-07T18:55:17;2.35;;;1.70;;
30466;SDS011;17258;52.560;13.046;2023-08-07T19:05:18;4.32;;;1.75;;
30466;SDS011;17258;52.560;13.046;2023-08-07T19:15:18;2.27;;;1.73;;
30466;SDS011;17258;52.560;13.046;2023-08-07T19:25:19;5.38;;;2.15;;
30466;SDS011;17258;52.560;13.046;2023-08-07T19:35:20;4.90;;;2.00;;
30466;SDS011;17258;52.560;13.046;2023-08-07T19:45:21;4.63;;;1.65;;
30466;SDS011;17258;52.560;13.046;2023-08-07T19:55:22;3.22;;;1.70;;
30466;SDS011;17258;52.560;13.046;2023-08-07T20:05:23;3.77;;;1.80;;
30466;SDS011;17258;52.560;13.046;2023-08-07T20:15:24;3.85;;;1.85;;
30466;SDS011;17258;52.560;13.046;2023-08-07T20:25:24;2.33;;;2.00;;
30466;SDS011;17258;52.560;13.046;2023-08-07T20:35:26;1.55;;;1.35;;
30466;SDS011;17258;52.560;13.046;2023-08-07T20:45:27;3.10;;;1.53;;
30466;SDS011;17258;52.560;13.046;2023-08-07T20:55:27;4.97;;;2.00;;
30466;SDS011;17258;52.560;13.046;2023-08-07T21:05:28;1.63;;;1.40;;
30466;SDS011;17258;52.560;13.046;2023-08-07T21:15:29;2.17;;;1.85;;
30466;SDS011;17258;52.560;13.046;2023-08-07T21:25:29;3.67;;;1.40;;
30466;SDS011;17258;52.560;13.046;2023-08-07T21:35:30;3.30;;;1.70;;
30466;SDS011;17258;52.560;13.046;2023-08-07T21:45:31;2.00;;;1.57;;
30466;SDS011;17258;52.560;13.046;2023-08-07T21:55:32;2.63;;;1.70;;
30466;SDS011;17258;52.560;13.046;2023-08-07T22:05:32;6.63;;;1.97;;
30466;SDS011;17258;52.560;13.046;2023-08-07T22:15:33;6.37;;;1.73;;
30466;SDS011;17258;52.560;13.046;2023-08-07T22:25:34;2.67;;;1.58;;
30466;SDS011;17258;52.560;13.046;2023-08-07T22:35:35;3.70;;;2.20;;
30466;SDS011;17258;52.560;13.046;2023-08-07T22:45:36;2.23;;;1.60;;
30466;SDS011;17258;52.560;13.046;2023-08-07T22:55:37;4.28;;;2.05;;
30466;SDS011;17258;52.560;13.046;2023-08-07T23:05:38;2.28;;;1.63;;
30466;SDS011;17258;52.560;13.046;2023-08-07T23:15:38;2.57;;;2.00;;
30466;SDS011;17258;52.560;13.046;2023-08-07T23:25:40;1.70;;;1.58;;
30466;SDS011;17258;52.560;13.046;2023-08-07T23:35:40;5.70;;;1.80;;
30466;SDS011;17258;52.560;13.046;2023-08-07T23:45:41;2.30;;;1.70;;
30466;SDS011;17258;52.560;13.046;2023-08-07T23:55:42;7.30;;;2.00;;
